createdAt,value
2022-12-14T00:01:36.243Z,19.13
2022-12-14T00:04:03.074Z,18.00
2022-12-14T00:06:32.559Z,18.73
2022-12-14T00:09:04.397Z,17.53
2022-12-14T00:11:33.679Z,17.97
2022-12-14T00:14:02.769Z,17.33
2022-12-14T00:16:32.076Z,18.73
2022-12-14T00:19:00.524Z,17.63
2022-12-14T00:21:27.934Z,18.93
2022-12-14T00:23:55.816Z,17.93
2022-12-14T00:26:25.771Z,19.13
2022-12-14T00:28:54.540Z,17.47
2022-12-14T00:31:22.521Z,17.90
2022-12-14T00:33:50.538Z,18.70
2022-12-14T00:36:17.814Z,18.57
2022-12-14T00:38:44.776Z,17.63
2022-12-14T00:41:12.445Z,19.07
2022-12-14T00:43:39.800Z,17.57
2022-12-14T00:46:07.330Z,18.87
2022-12-14T00:48:34.647Z,18.17
2022-12-14T00:51:01.460Z,19.40
2022-12-14T00:53:28.317Z,18.53
2022-12-14T00:55:55.402Z,17.97
2022-12-14T00:58:24.882Z,18.60
2022-12-14T01:01:12.478Z,18.13
2022-12-14T01:03:39.653Z,19.47
2022-12-14T01:06:12.607Z,18.20
2022-12-14T01:08:39.375Z,18.20
2022-12-14T01:11:07.333Z,18.30
2022-12-14T01:13:36.029Z,17.73
2022-12-14T01:16:08.600Z,18.47
2022-12-14T01:18:36.974Z,17.87
2022-12-14T01:21:19.322Z,16.90
2022-12-14T01:23:47.356Z,18.27
2022-12-14T01:26:15.606Z,17.73
2022-12-14T01:28:42.766Z,18.37
2022-12-14T01:31:18.079Z,18.73
2022-12-14T01:33:45.465Z,17.90
2022-12-14T01:36:18.309Z,18.23
2022-12-14T01:38:46.085Z,18.00
2022-12-14T01:41:38.771Z,19.07
2022-12-14T01:44:08.472Z,18.10
2022-12-14T01:46:40.043Z,20.20
2022-12-14T01:49:43.229Z,18.00
2022-12-14T01:52:16.042Z,20.07
2022-12-14T01:55:08.105Z,20.43
2022-12-14T01:57:37.926Z,18.10
2022-12-14T02:00:08.709Z,17.23
2022-12-14T02:02:38.150Z,18.23
2022-12-14T02:05:08.102Z,18.00
2022-12-14T02:07:35.044Z,16.43
2022-12-14T02:10:05.646Z,16.83
2022-12-14T02:12:39.111Z,17.40
2022-12-14T02:15:07.076Z,17.17
2022-12-14T02:17:35.190Z,18.37
2022-12-14T02:20:03.939Z,18.13
2022-12-14T02:22:53.060Z,18.33
2022-12-14T02:25:49.195Z,18.53
2022-12-14T02:28:51.710Z,16.73
2022-12-14T02:31:43.166Z,17.33
2022-12-14T02:34:17.272Z,15.93
2022-12-14T02:36:58.004Z,16.73
2022-12-14T02:39:37.096Z,16.50
2022-12-14T02:42:15.003Z,16.47
2022-12-14T02:45:01.375Z,16.27
2022-12-14T02:47:38.440Z,16.60
2022-12-14T02:50:14.389Z,17.70
2022-12-14T02:53:11.969Z,14.97
2022-12-14T02:55:52.052Z,17.47
2022-12-14T02:58:32.834Z,15.63
2022-12-14T03:01:00.055Z,16.97
2022-12-14T03:03:27.273Z,15.90
2022-12-14T03:06:14.757Z,15.30
2022-12-14T03:08:44.429Z,16.20
2022-12-14T03:11:16.476Z,15.77
2022-12-14T03:13:46.035Z,15.73
2022-12-14T03:16:29.947Z,15.43
2022-12-14T03:19:11.149Z,16.10
2022-12-14T03:21:44.240Z,14.77
2022-12-14T03:24:15.142Z,15.13
2022-12-14T03:26:50.319Z,15.53
2022-12-14T03:29:28.432Z,15.73
2022-12-14T03:32:02.285Z,16.03
2022-12-14T03:34:35.088Z,15.07
2022-12-14T03:37:06.310Z,15.87
2022-12-14T03:39:35.186Z,15.60
2022-12-14T03:42:23.753Z,16.33
2022-12-14T03:45:15.473Z,16.27
2022-12-14T03:48:09.514Z,16.30
2022-12-14T03:50:40.513Z,15.50
2022-12-14T03:53:12.643Z,16.53
2022-12-14T03:55:59.147Z,16.07
2022-12-14T03:58:57.333Z,16.73
2022-12-14T04:01:55.927Z,16.60
2022-12-14T04:05:04.034Z,16.53
2022-12-14T04:07:44.053Z,16.47
2022-12-14T04:10:36.505Z,16.20
2022-12-14T04:13:28.920Z,16.60
2022-12-14T04:16:18.067Z,17.07
2022-12-14T04:19:01.853Z,17.03
2022-12-14T04:22:09.102Z,17.07
2022-12-14T04:25:00.008Z,16.07
2022-12-14T04:27:39.328Z,17.00
2022-12-14T04:30:09.458Z,17.13
2022-12-14T04:33:30.702Z,17.43
2022-12-14T04:36:02.145Z,16.03
2022-12-14T04:38:35.082Z,17.63
2022-12-14T04:41:07.663Z,17.30
2022-12-14T04:43:39.792Z,16.67
2022-12-14T04:46:10.980Z,17.07
2022-12-14T04:48:43.886Z,17.40
2022-12-14T04:51:13.422Z,17.50
2022-12-14T04:53:43.049Z,18.23
2022-12-14T04:56:27.654Z,18.90
2022-12-14T04:58:54.755Z,17.40
2022-12-14T05:01:31.208Z,17.27
2022-12-14T05:04:20.701Z,16.93
2022-12-14T05:06:58.620Z,16.87
2022-12-14T05:09:46.463Z,16.47
2022-12-14T05:12:58.809Z,16.93
2022-12-14T05:15:34.573Z,16.53
2022-12-14T05:18:05.640Z,17.17
2022-12-14T05:20:32.487Z,15.70
2022-12-14T05:22:59.362Z,15.83
2022-12-14T05:25:26.174Z,16.83
2022-12-14T05:27:52.992Z,16.73
2022-12-14T05:30:19.771Z,15.33
2022-12-14T05:32:46.583Z,15.47
2022-12-14T05:35:13.889Z,15.90
2022-12-14T05:37:41.756Z,16.83
2022-12-14T05:40:09.470Z,14.90
2022-12-14T05:42:40.951Z,15.27
2022-12-14T05:45:12.808Z,14.70
2022-12-14T05:47:39.896Z,15.13
2022-12-14T05:50:07.707Z,14.70
2022-12-14T05:52:34.878Z,14.67
2022-12-14T05:55:04.504Z,14.67
2022-12-14T05:57:32.284Z,13.80
2022-12-14T05:59:59.068Z,14.50
2022-12-14T06:02:26.104Z,15.07
2022-12-14T06:04:52.891Z,14.40
2022-12-14T06:07:24.485Z,14.93
2022-12-14T06:09:54.430Z,15.13
2022-12-14T06:12:21.296Z,13.93
2022-12-14T06:14:48.132Z,17.53
2022-12-14T06:17:17.825Z,16.40
2022-12-14T06:19:49.532Z,15.47
2022-12-14T06:22:17.859Z,13.90
2022-12-14T06:24:45.184Z,15.87
2022-12-14T06:27:12.087Z,13.53
2022-12-14T06:29:38.881Z,13.40
2022-12-14T06:32:05.782Z,14.43
2022-12-14T06:34:36.903Z,16.50
2022-12-14T06:37:06.412Z,14.83
2022-12-14T06:39:33.303Z,16.07
2022-12-14T06:42:00.118Z,15.13
2022-12-14T06:44:27.036Z,15.03
2022-12-14T06:46:54.013Z,13.87
2022-12-14T06:49:20.937Z,15.17
2022-12-14T06:51:48.414Z,13.70
2022-12-14T06:54:16.345Z,13.93
2022-12-14T06:56:45.315Z,15.93
2022-12-14T06:59:13.142Z,13.43
2022-12-14T07:01:40.810Z,15.07
2022-12-14T07:04:09.697Z,12.97
2022-12-14T07:06:40.093Z,13.10
2022-12-14T07:09:09.126Z,14.50
2022-12-14T07:11:36.055Z,14.23
2022-12-14T07:14:07.107Z,11.23
2022-12-14T07:16:37.084Z,11.10
2022-12-14T07:19:04.825Z,10.57
2022-12-14T07:21:32.228Z,11.37
2022-12-14T07:24:01.128Z,10.20
2022-12-14T07:26:29.503Z,10.70
2022-12-14T07:29:00.679Z,11.50
2022-12-14T07:31:28.704Z,10.53
2022-12-14T07:33:57.211Z,10.40
2022-12-14T07:36:25.464Z,11.27
2022-12-14T07:38:53.755Z,10.90
2022-12-14T07:41:24.626Z,11.00
2022-12-14T07:43:53.542Z,11.50
2022-12-14T07:46:22.360Z,10.40
2022-12-14T07:48:54.464Z,10.77
2022-12-14T07:51:27.142Z,10.30
2022-12-14T07:53:54.645Z,10.40
2022-12-14T07:56:24.960Z,10.73
2022-12-14T07:58:52.766Z,9.93
2022-12-14T08:01:22.408Z,9.37
2022-12-14T08:03:53.223Z,10.40
2022-12-14T08:06:22.031Z,9.63
2022-12-14T08:08:49.340Z,9.43
2022-12-14T08:11:16.961Z,10.23
2022-12-14T08:13:44.311Z,9.57
2022-12-14T08:16:13.975Z,9.30
2022-12-14T08:18:42.220Z,9.20
2022-12-14T08:21:11.262Z,9.73
2022-12-14T08:23:42.073Z,9.87
2022-12-14T08:26:09.276Z,9.20
2022-12-14T08:28:36.575Z,10.30
2022-12-14T08:31:06.636Z,9.23
2022-12-14T08:33:35.507Z,10.10
2022-12-14T08:36:13.780Z,9.90
2022-12-14T08:38:42.187Z,9.50
2022-12-14T08:41:12.155Z,9.30
2022-12-14T08:43:40.944Z,9.30
2022-12-14T08:46:10.225Z,9.87
2022-12-14T08:48:38.118Z,10.17
2022-12-14T08:51:07.649Z,10.20
2022-12-14T08:53:35.978Z,9.40
2022-12-14T08:56:13.833Z,9.60
2022-12-14T08:58:41.543Z,9.17
2022-12-14T09:01:15.304Z,9.00
2022-12-14T09:03:44.924Z,8.73
2022-12-14T09:06:15.218Z,9.50
2022-12-14T09:08:42.346Z,9.77
2022-12-14T09:11:16.018Z,9.03
2022-12-14T09:13:43.639Z,9.00
2022-12-14T09:16:17.136Z,9.57
2022-12-14T09:18:45.916Z,9.30
2022-12-14T09:21:19.172Z,9.17
2022-12-14T09:23:46.500Z,9.53
2022-12-14T09:26:18.188Z,9.23
2022-12-14T09:28:52.014Z,9.70
2022-12-14T09:31:22.285Z,10.07
2022-12-14T09:33:51.169Z,8.83
2022-12-14T09:36:24.113Z,9.43
2022-12-14T09:38:52.790Z,8.23
2022-12-14T09:41:50.703Z,9.40
2022-12-14T09:44:51.519Z,10.37
2022-12-14T09:47:41.873Z,9.87
2022-12-14T09:50:15.852Z,9.40
2022-12-14T09:52:49.084Z,9.73
2022-12-14T09:55:37.455Z,10.00
2022-12-14T09:58:27.521Z,10.07
2022-12-14T10:01:03.658Z,9.83
2022-12-14T10:03:45.519Z,8.77
2022-12-14T10:06:34.325Z,8.70
2022-12-14T10:09:26.388Z,8.47
2022-12-14T10:12:14.685Z,8.50
2022-12-14T10:15:02.538Z,9.03
2022-12-14T10:17:51.132Z,8.67
2022-12-14T10:20:22.045Z,8.60
2022-12-14T10:22:52.688Z,8.03
2022-12-14T10:25:25.429Z,9.13
2022-12-14T10:28:13.309Z,9.47
2022-12-14T10:30:44.659Z,8.77
2022-12-14T10:33:24.569Z,9.03
2022-12-14T10:35:55.699Z,9.27
2022-12-14T10:38:34.047Z,8.73
2022-12-14T10:41:15.508Z,9.33
2022-12-14T10:44:01.193Z,8.47
2022-12-14T10:46:53.487Z,8.60
2022-12-14T10:49:55.338Z,9.87
2022-12-14T10:52:30.974Z,9.60
2022-12-14T10:55:03.399Z,9.83
2022-12-14T10:57:30.689Z,8.80
2022-12-14T11:00:08.339Z,9.03
2022-12-14T11:02:41.515Z,8.90
2022-12-14T11:05:36.350Z,8.10
2022-12-14T11:08:07.260Z,9.50
2022-12-14T11:10:36.399Z,9.20
2022-12-14T11:13:05.084Z,9.47
2022-12-14T11:15:42.382Z,9.57
2022-12-14T11:18:12.341Z,8.57
2022-12-14T11:21:00.363Z,9.00
2022-12-14T11:23:38.107Z,8.73
2022-12-14T11:26:15.349Z,8.47
2022-12-14T11:28:54.402Z,8.77
2022-12-14T11:31:23.014Z,9.20
2022-12-14T11:33:55.949Z,8.33
2022-12-14T11:36:38.527Z,8.40
2022-12-14T11:39:09.683Z,8.80
2022-12-14T11:41:39.181Z,8.17
2022-12-14T11:44:15.901Z,8.17
2022-12-14T11:46:51.238Z,8.50
2022-12-14T11:49:36.524Z,8.17
2022-12-14T11:52:09.237Z,8.47
2022-12-14T11:54:42.338Z,8.40
2022-12-14T11:57:12.514Z,8.27
2022-12-14T11:59:47.544Z,9.33
2022-12-14T12:02:23.518Z,8.70
2022-12-14T12:05:15.999Z,8.47
2022-12-14T12:07:51.368Z,8.17
2022-12-14T12:10:23.562Z,9.17
2022-12-14T12:12:58.036Z,8.17
2022-12-14T12:15:49.882Z,9.33
2022-12-14T12:18:20.226Z,8.80
2022-12-14T12:20:50.495Z,7.77
2022-12-14T12:23:27.320Z,8.80
2022-12-14T12:25:57.719Z,7.97
2022-12-14T12:28:33.032Z,9.10
2022-12-14T12:31:10.948Z,8.67
2022-12-14T12:33:50.730Z,8.20
2022-12-14T12:36:24.127Z,8.60
2022-12-14T12:39:01.695Z,8.17
2022-12-14T12:41:34.553Z,8.10
2022-12-14T12:44:20.802Z,8.37
2022-12-14T12:49:46.330Z,9.10
2022-12-14T12:52:26.859Z,8.43
2022-12-14T12:55:01.856Z,8.50
2022-12-14T12:57:33.712Z,8.80
2022-12-14T13:00:01.181Z,8.40
2022-12-14T13:02:42.778Z,7.87
2022-12-14T13:05:45.107Z,7.47
2022-12-14T13:08:21.167Z,9.23
2022-12-14T13:13:41.173Z,8.73
2022-12-14T13:16:10.849Z,7.50
2022-12-14T13:21:49.799Z,7.17
2022-12-14T13:24:20.044Z,7.70
2022-12-14T13:27:31.259Z,7.57
2022-12-14T13:30:19.113Z,8.20
2022-12-14T13:32:57.722Z,8.10
2022-12-14T13:35:51.748Z,8.40
2022-12-14T13:38:40.546Z,8.13
2022-12-14T13:41:23.906Z,8.93
2022-12-14T13:43:53.735Z,8.60
2022-12-14T13:46:26.996Z,8.23
2022-12-14T13:48:58.344Z,9.00
2022-12-14T13:51:32.074Z,8.73
2022-12-14T13:54:02.930Z,8.17
2022-12-14T13:56:34.007Z,9.00
2022-12-14T13:59:04.011Z,7.90
2022-12-14T14:01:46.544Z,8.67
2022-12-14T14:04:16.677Z,8.47
2022-12-14T14:06:49.096Z,8.83
2022-12-14T14:09:34.371Z,9.17
2022-12-14T14:12:32.230Z,8.83
2022-12-14T14:15:09.509Z,8.60
2022-12-14T14:17:49.211Z,8.53
2022-12-14T14:20:45.708Z,9.57
2022-12-14T14:23:20.148Z,9.37
2022-12-14T14:25:51.868Z,9.67
2022-12-14T14:28:23.311Z,9.90
2022-12-14T14:30:54.409Z,9.80
2022-12-14T14:33:55.461Z,10.80
2022-12-14T14:36:27.379Z,10.67
2022-12-14T14:38:56.010Z,11.83
2022-12-14T14:41:31.988Z,12.03
2022-12-14T14:44:08.215Z,11.90
2022-12-14T14:46:40.102Z,11.80
2022-12-14T14:49:19.697Z,11.70
2022-12-14T14:51:46.727Z,11.60
2022-12-14T14:54:44.841Z,10.77
2022-12-14T14:57:53.300Z,9.53
2022-12-14T15:00:20.406Z,11.57
2022-12-14T15:02:49.673Z,11.60
2022-12-14T15:05:42.619Z,11.03
2022-12-14T15:08:39.053Z,9.33
2022-12-14T15:11:15.142Z,8.90
2022-12-14T15:13:50.723Z,8.53
2022-12-14T15:16:22.847Z,7.43
2022-12-14T15:18:49.723Z,7.47
2022-12-14T15:21:18.895Z,7.17
2022-12-14T15:23:49.448Z,7.03
2022-12-14T15:26:28.854Z,7.07
2022-12-14T15:28:59.027Z,6.70
2022-12-14T15:31:34.943Z,7.10
2022-12-14T15:34:03.227Z,7.07
2022-12-14T15:36:34.552Z,7.10
2022-12-14T15:39:01.549Z,6.93
2022-12-14T15:41:30.429Z,7.03
2022-12-14T15:44:00.040Z,6.93
2022-12-14T15:46:33.550Z,7.17
2022-12-14T15:49:10.859Z,7.57
2022-12-14T15:51:41.932Z,7.57
2022-12-14T15:54:18.449Z,7.90
2022-12-14T15:56:47.993Z,7.70
2022-12-14T15:59:32.307Z,8.33
2022-12-14T16:02:10.323Z,7.33
2022-12-14T16:04:37.992Z,8.43
2022-12-14T16:07:14.260Z,8.13
2022-12-14T16:09:53.088Z,8.13
2022-12-14T16:12:24.856Z,8.10
2022-12-14T16:14:57.385Z,8.23
2022-12-14T16:17:32.216Z,9.60
2022-12-14T16:20:02.361Z,8.60
2022-12-14T16:22:32.079Z,8.80
2022-12-14T16:25:08.209Z,9.90
2022-12-14T16:27:49.793Z,9.50
2022-12-14T16:30:30.859Z,9.17
2022-12-14T16:33:17.669Z,8.97
2022-12-14T16:35:46.339Z,9.73
2022-12-14T16:38:17.170Z,9.63
2022-12-14T16:40:57.436Z,10.27
2022-12-14T16:43:32.719Z,10.20
2022-12-14T16:46:05.926Z,10.17
2022-12-14T16:48:41.528Z,9.97
2022-12-14T16:51:37.955Z,9.37
2022-12-14T16:54:22.910Z,10.33
2022-12-14T16:56:58.197Z,10.20
2022-12-14T16:59:40.623Z,10.37
2022-12-14T17:02:28.108Z,10.53
2022-12-14T17:04:57.319Z,10.03
2022-12-14T17:07:27.227Z,10.90
2022-12-14T17:09:56.402Z,10.67
2022-12-14T17:12:24.997Z,9.67
2022-12-14T17:14:52.282Z,11.27
2022-12-14T17:17:26.958Z,11.27
2022-12-14T17:19:53.965Z,10.03
2022-12-14T17:22:27.610Z,11.17
2022-12-14T17:24:54.609Z,10.83
2022-12-14T17:27:26.741Z,11.00
2022-12-14T17:29:54.758Z,11.00
2022-12-14T17:32:22.911Z,10.23
2022-12-14T17:34:50.225Z,11.03
2022-12-14T17:37:19.651Z,10.73
2022-12-14T17:39:49.831Z,10.60
2022-12-14T17:42:25.899Z,10.40
2022-12-14T17:44:58.912Z,10.83
2022-12-14T17:47:26.190Z,10.33
2022-12-14T17:49:55.822Z,11.43
2022-12-14T17:52:32.984Z,11.10
2022-12-14T17:55:01.952Z,10.33
2022-12-14T17:57:29.619Z,10.60
2022-12-14T18:00:14.911Z,10.90
2022-12-14T18:02:42.714Z,10.70
2022-12-14T18:05:19.947Z,10.77
2022-12-14T18:07:49.699Z,11.00
2022-12-14T18:10:18.652Z,10.17
2022-12-14T18:12:49.994Z,11.53
2022-12-14T18:15:24.609Z,10.97
2022-12-14T18:17:51.988Z,10.67
2022-12-14T18:20:23.475Z,11.20
2022-12-14T18:22:53.798Z,12.23
2022-12-14T18:25:43.851Z,11.67
2022-12-14T18:28:21.731Z,12.40
2022-12-14T18:31:12.969Z,11.53
2022-12-14T18:33:43.656Z,11.67
2022-12-14T18:36:21.541Z,12.30
2022-12-14T18:38:53.513Z,11.43
2022-12-14T18:41:23.348Z,12.47
2022-12-14T18:43:50.820Z,12.97
2022-12-14T18:46:18.072Z,12.97
2022-12-14T18:48:45.327Z,13.67
2022-12-14T18:51:16.161Z,12.80
2022-12-14T18:53:48.447Z,12.40
2022-12-14T18:56:15.474Z,12.03
2022-12-14T18:58:47.104Z,12.20
2022-12-14T19:01:20.033Z,13.73
2022-12-14T19:03:47.739Z,12.67
2022-12-14T19:09:13.678Z,13.67
2022-12-14T19:11:44.366Z,13.60
2022-12-14T19:14:14.572Z,13.03
2022-12-14T19:16:47.687Z,13.70
2022-12-14T19:19:14.738Z,13.87
2022-12-14T19:21:43.229Z,14.30
2022-12-14T19:24:13.598Z,13.80
2022-12-14T19:26:40.666Z,14.00
2022-12-14T19:29:07.705Z,14.10
2022-12-14T19:31:37.462Z,13.60
2022-12-14T19:34:10.349Z,13.53
2022-12-14T19:36:40.317Z,14.80
2022-12-14T19:39:07.159Z,14.83
2022-12-14T19:41:34.262Z,15.17
2022-12-14T19:44:03.548Z,15.13
2022-12-14T19:46:30.742Z,14.97
2022-12-14T19:49:01.047Z,13.40
2022-12-14T19:51:28.172Z,14.27
2022-12-14T19:53:57.884Z,15.13
2022-12-14T19:56:24.961Z,14.30
2022-12-14T20:05:10.070Z,14.70
2022-12-14T20:07:43.414Z,14.33
2022-12-14T20:10:13.820Z,14.30
2022-12-14T20:12:41.215Z,14.70
2022-12-14T20:15:08.432Z,14.23
2022-12-14T20:17:35.530Z,15.10
2022-12-14T20:20:02.650Z,15.20
2022-12-14T20:22:29.574Z,14.90
2022-12-14T20:24:56.617Z,15.13
2022-12-14T20:27:26.371Z,15.50
2022-12-14T20:30:04.979Z,14.73
2022-12-14T20:32:49.300Z,14.60
2022-12-14T20:35:23.100Z,12.77
2022-12-14T20:37:57.636Z,14.43
2022-12-14T20:40:38.072Z,14.63
2022-12-14T20:43:07.529Z,14.13
2022-12-14T20:45:42.567Z,13.13
2022-12-14T20:48:17.076Z,13.30
2022-12-14T20:50:59.339Z,14.07
2022-12-14T20:53:27.587Z,12.97
2022-12-14T20:55:54.900Z,12.53
2022-12-14T20:58:23.112Z,13.37
2022-12-14T21:00:51.359Z,12.13
2022-12-14T21:03:18.382Z,14.43
2022-12-14T21:05:45.314Z,13.93
2022-12-14T21:08:15.621Z,13.70
2022-12-14T21:10:44.117Z,14.40
2022-12-14T21:13:11.032Z,14.43
2022-12-14T21:15:37.863Z,14.07
2022-12-14T21:18:04.956Z,15.10
2022-12-14T21:20:31.970Z,13.90
2022-12-14T21:22:58.876Z,14.43
2022-12-14T21:25:25.876Z,15.73
2022-12-14T21:27:53.401Z,16.20
2022-12-14T21:30:20.496Z,15.57
2022-12-14T21:32:47.290Z,15.67
2022-12-14T21:35:17.682Z,14.13
2022-12-14T21:37:44.953Z,15.10
2022-12-14T21:40:32.419Z,14.07
2022-12-14T21:42:59.497Z,14.80
2022-12-14T21:45:26.504Z,14.37
2022-12-14T21:47:54.435Z,13.37
2022-12-14T21:50:21.237Z,16.40
2022-12-14T21:52:48.020Z,13.27
2022-12-14T21:55:17.474Z,14.80
2022-12-14T21:58:03.350Z,14.33
2022-12-14T22:00:30.443Z,12.97
2022-12-14T22:02:58.387Z,12.43
2022-12-14T22:05:26.967Z,12.70
2022-12-14T22:07:54.448Z,14.40
2022-12-14T22:10:25.129Z,12.63
2022-12-14T22:12:52.161Z,14.00
2022-12-14T22:15:18.995Z,13.87
2022-12-14T22:17:45.759Z,14.43
2022-12-14T22:20:13.093Z,14.33
2022-12-14T22:22:39.871Z,12.77
2022-12-14T22:25:07.527Z,14.67
2022-12-14T22:27:34.315Z,15.00
2022-12-14T22:30:01.055Z,13.73
2022-12-14T22:32:28.354Z,13.73
2022-12-14T22:34:55.135Z,13.40
2022-12-14T22:37:21.929Z,13.10
2022-12-14T22:39:49.142Z,14.03
2022-12-14T22:42:16.374Z,13.10
2022-12-14T22:44:43.543Z,12.77
2022-12-14T22:47:10.244Z,11.27
2022-12-14T22:49:37.100Z,12.40
2022-12-14T22:52:03.976Z,12.70
2022-12-14T22:54:30.905Z,13.30
2022-12-14T22:57:04.176Z,13.07
2022-12-14T22:59:43.695Z,11.70
2022-12-14T23:02:10.883Z,12.60
2022-12-14T23:04:38.391Z,13.73
2022-12-14T23:07:05.751Z,12.30
2022-12-14T23:09:50.983Z,12.50
2022-12-14T23:12:36.219Z,10.07
2022-12-14T23:15:22.003Z,12.53
2022-12-14T23:18:07.560Z,11.20
2022-12-14T23:20:53.177Z,10.40
2022-12-14T23:23:38.693Z,11.23
2022-12-14T23:26:24.342Z,11.63
2022-12-14T23:29:09.692Z,12.13
2022-12-14T23:31:55.367Z,12.20
2022-12-14T23:34:40.568Z,13.60
2022-12-14T23:37:26.647Z,13.10
2022-12-14T23:40:12.335Z,13.00
2022-12-14T23:42:57.608Z,13.00
2022-12-14T23:45:43.204Z,12.47
2022-12-14T23:48:28.841Z,12.70
2022-12-14T23:51:14.266Z,13.37
2022-12-14T23:53:59.419Z,13.33
2022-12-14T23:56:44.799Z,12.83
2022-12-14T23:59:32.590Z,11.53
